sensor_id;sensor_type;location;lat;lon;timestamp;pressure;altitude;pressure_sealevel;temperature;humidity
63088;BME280;49173;43.164;27.786;2023-02-26T00:01:21;99485.47;;;13.23;71.87
63088;BME280;49173;43.164;27.786;2023-02-26T00:03:52;99485.59;;;13.21;71.95
63088;BME280;49173;43.164;27.786;2023-02-26T00:06:19;99488.63;;;13.16;72.32
63088;BME280;49173;43.164;27.786;2023-02-26T00:08:45;99494.00;;;13.16;72.61
63088;BME280;49173;43.164;27.786;2023-02-26T00:11:11;99497.09;;;13.12;72.95
63088;BME280;49173;43.164;27.786;2023-02-26T00:13:39;99503.22;;;13.14;73.12
63088;BME280;49173;43.164;27.786;2023-02-26T00:16:35;99504.41;;;13.10;73.19
63088;BME280;49173;43.164;27.786;2023-02-26T00:19:05;99489.25;;;13.09;73.34
63088;BME280;49173;43.164;27.786;2023-02-26T00:21:32;99488.25;;;13.10;73.54
63088;BME280;49173;43.164;27.786;2023-02-26T00:23:58;99502.97;;;13.06;73.88
63088;BME280;49173;43.164;27.786;2023-02-26T00:26:25;99494.88;;;13.06;73.81
63088;BME280;49173;43.164;27.786;2023-02-26T00:28:52;99490.09;;;13.09;74.01
63088;BME280;49173;43.164;27.786;2023-02-26T00:31:18;99486.66;;;13.07;73.94
63088;BME280;49173;43.164;27.786;2023-02-26T00:33:52;99495.47;;;13.09;74.46
63088;BME280;49173;43.164;27.786;2023-02-26T00:36:24;99495.97;;;13.14;73.94
63088;BME280;49173;43.164;27.786;2023-02-26T00:39:01;99494.41;;;13.12;74.29
63088;BME280;49173;43.164;27.786;2023-02-26T00:41:29;99487.31;;;13.11;74.27
63088;BME280;49173;43.164;27.786;2023-02-26T00:43:56;99487.31;;;13.11;74.68
63088;BME280;49173;43.164;27.786;2023-02-26T00:51:58;99472.72;;;13.13;74.86
63088;BME280;49173;43.164;27.786;2023-02-26T00:54:27;99459.38;;;13.12;75.17
63088;BME280;49173;43.164;27.786;2023-02-26T00:56:55;99467.56;;;13.10;75.23
63088;BME280;49173;43.164;27.786;2023-02-26T00:59:22;99480.16;;;13.10;75.21
63088;BME280;49173;43.164;27.786;2023-02-26T01:01:48;99474.69;;;13.11;75.19
63088;BME280;49173;43.164;27.786;2023-02-26T01:04:17;99484.59;;;13.11;75.17
63088;BME280;49173;43.164;27.786;2023-02-26T01:06:46;99488.03;;;13.13;75.48
63088;BME280;49173;43.164;27.786;2023-02-26T01:09:25;99488.03;;;13.13;75.06
63088;BME280;49173;43.164;27.786;2023-02-26T01:11:54;99488.25;;;13.10;75.27
63088;BME280;49173;43.164;27.786;2023-02-26T01:14:21;99488.38;;;13.08;75.50
63088;BME280;49173;43.164;27.786;2023-02-26T01:16:56;99479.69;;;13.05;75.57
63088;BME280;49173;43.164;27.786;2023-02-26T01:22:09;99479.56;;;13.06;75.56
63088;BME280;49173;43.164;27.786;2023-02-26T01:24:37;99480.69;;;13.04;75.38
63088;BME280;49173;43.164;27.786;2023-02-26T01:27:04;99479.94;;;13.02;75.71
63088;BME280;49173;43.164;27.786;2023-02-26T01:29:31;99483.59;;;13.01;75.45
63088;BME280;49173;43.164;27.786;2023-02-26T01:35:01;99482.75;;;13.00;75.68
63088;BME280;49173;43.164;27.786;2023-02-26T01:40:45;99484.34;;;13.03;75.88
63088;BME280;49173;43.164;27.786;2023-02-26T01:43:06;99478.94;;;13.03;75.80
63088;BME280;49173;43.164;27.786;2023-02-26T01:45:42;99483.59;;;13.01;75.80
63088;BME280;49173;43.164;27.786;2023-02-26T01:48:25;99477.50;;;12.99;76.29
63088;BME280;49173;43.164;27.786;2023-02-26T01:50:54;99483.47;;;13.02;75.98
63088;BME280;49173;43.164;27.786;2023-02-26T01:53:24;99483.59;;;13.01;76.28
63088;BME280;49173;43.164;27.786;2023-02-26T01:56:03;99487.28;;;13.00;76.63
63088;BME280;49173;43.164;27.786;2023-02-26T01:58:33;99491.56;;;13.02;76.71
63088;BME280;49173;43.164;27.786;2023-02-26T02:01:01;99484.22;;;13.04;76.77
63088;BME280;49173;43.164;27.786;2023-02-26T02:03:31;99488.63;;;13.05;76.54
63088;BME280;49173;43.164;27.786;2023-02-26T02:08:32;99493.63;;;13.10;76.74
63088;BME280;49173;43.164;27.786;2023-02-26T02:11:01;99497.81;;;13.14;76.44
63088;BME280;49173;43.164;27.786;2023-02-26T02:13:36;99484.34;;;13.14;76.78
63088;BME280;49173;43.164;27.786;2023-02-26T02:24:26;99492.31;;;13.15;76.44
63088;BME280;49173;43.164;27.786;2023-02-26T02:27:12;99495.00;;;13.15;76.75
63088;BME280;49173;43.164;27.786;2023-02-26T02:32:21;99488.63;;;13.16;76.16
63088;BME280;49173;43.164;27.786;2023-02-26T02:35:03;99489.75;;;13.14;76.42
63088;BME280;49173;43.164;27.786;2023-02-26T02:37:45;99474.56;;;13.13;76.35
63088;BME280;49173;43.164;27.786;2023-02-26T02:40:23;99499.78;;;13.12;76.66
63088;BME280;49173;43.164;27.786;2023-02-26T02:43:08;99511.53;;;13.11;76.46
63088;BME280;49173;43.164;27.786;2023-02-26T02:45:41;99508.94;;;13.09;76.38
63088;BME280;49173;43.164;27.786;2023-02-26T02:48:25;99515.19;;;13.10;76.09
63088;BME280;49173;43.164;27.786;2023-02-26T02:51:16;99528.56;;;13.11;76.06
63088;BME280;49173;43.164;27.786;2023-02-26T02:53:49;99543.97;;;13.09;76.44
63088;BME280;49173;43.164;27.786;2023-02-26T02:56:23;99537.59;;;13.10;76.22
63088;BME280;49173;43.164;27.786;2023-02-26T02:59:17;99539.69;;;13.07;76.25
63088;BME280;49173;43.164;27.786;2023-02-26T03:01:44;99543.13;;;13.09;76.33
63088;BME280;49173;43.164;27.786;2023-02-26T03:04:14;99542.38;;;13.07;76.37
63088;BME280;49173;43.164;27.786;2023-02-26T03:06:41;99545.22;;;13.05;76.22
63088;BME280;49173;43.164;27.786;2023-02-26T03:09:09;99542.38;;;13.07;75.96
63088;BME280;49173;43.164;27.786;2023-02-26T03:11:36;99546.78;;;13.08;76.13
63088;BME280;49173;43.164;27.786;2023-02-26T03:14:03;99548.50;;;13.09;76.19
63088;BME280;49173;43.164;27.786;2023-02-26T03:24:10;99542.03;;;13.11;76.21
63088;BME280;49173;43.164;27.786;2023-02-26T03:27:02;99557.22;;;13.12;76.03
63088;BME280;49173;43.164;27.786;2023-02-26T03:29:50;99555.38;;;13.13;76.09
63088;BME280;49173;43.164;27.786;2023-02-26T03:32:25;99554.66;;;13.11;76.09
63088;BME280;49173;43.164;27.786;2023-02-26T03:35:08;99568.22;;;13.09;76.32
63088;BME280;49173;43.164;27.786;2023-02-26T03:40:14;99563.84;;;13.19;76.32
63088;BME280;49173;43.164;27.786;2023-02-26T03:42:49;99555.66;;;13.21;76.25
63088;BME280;49173;43.164;27.786;2023-02-26T03:45:21;99570.00;;;13.22;76.34
63088;BME280;49173;43.164;27.786;2023-02-26T03:47:50;99558.00;;;13.26;75.92
63088;BME280;49173;43.164;27.786;2023-02-26T03:50:57;99557.16;;;13.25;76.20
63088;BME280;49173;43.164;27.786;2023-02-26T03:53:27;99562.53;;;13.25;75.83
63088;BME280;49173;43.164;27.786;2023-02-26T03:56:22;99550.66;;;13.28;75.29
63088;BME280;49173;43.164;27.786;2023-02-26T03:58:50;99554.94;;;13.30;75.30
63088;BME280;49173;43.164;27.786;2023-02-26T04:01:21;99560.94;;;13.34;75.39
63088;BME280;49173;43.164;27.786;2023-02-26T04:04:01;99544.03;;;13.32;75.59
63088;BME280;49173;43.164;27.786;2023-02-26T04:06:29;99549.66;;;13.29;75.99
63088;BME280;49173;43.164;27.786;2023-02-26T04:08:55;99552.38;;;13.29;75.82
63088;BME280;49173;43.164;27.786;2023-02-26T04:11:22;99554.78;;;13.32;75.70
63088;BME280;49173;43.164;27.786;2023-02-26T04:13:50;99567.41;;;13.31;76.05
63088;BME280;49173;43.164;27.786;2023-02-26T04:16:16;99555.91;;;13.29;76.11
63088;BME280;49173;43.164;27.786;2023-02-26T04:18:43;99559.34;;;13.31;76.03
63088;BME280;49173;43.164;27.786;2023-02-26T04:21:13;99551.25;;;13.31;76.15
63088;BME280;49173;43.164;27.786;2023-02-26T04:23:40;99570.38;;;13.28;76.56
63088;BME280;49173;43.164;27.786;2023-02-26T04:26:06;99570.38;;;13.28;76.43
63088;BME280;49173;43.164;27.786;2023-02-26T04:28:32;99580.16;;;13.29;76.47
63088;BME280;49173;43.164;27.786;2023-02-26T04:30:59;99583.50;;;13.33;76.48
63088;BME280;49173;43.164;27.786;2023-02-26T04:33:25;99576.25;;;13.33;76.32
63088;BME280;49173;43.164;27.786;2023-02-26T04:35:52;99581.66;;;13.33;76.40
63088;BME280;49173;43.164;27.786;2023-02-26T04:38:17;99595.00;;;13.35;76.29
63088;BME280;49173;43.164;27.786;2023-02-26T04:40:44;99600.03;;;13.39;76.00
63088;BME280;49173;43.164;27.786;2023-02-26T04:43:11;99614.47;;;13.38;76.19
63088;BME280;49173;43.164;27.786;2023-02-26T04:45:37;99604.19;;;13.43;75.96
63088;BME280;49173;43.164;27.786;2023-02-26T04:48:03;99604.31;;;13.42;75.83
63088;BME280;49173;43.164;27.786;2023-02-26T04:50:29;99602.75;;;13.39;76.04
63088;BME280;49173;43.164;27.786;2023-02-26T04:52:57;99610.81;;;13.39;75.89
63088;BME280;49173;43.164;27.786;2023-02-26T04:55:23;99613.25;;;13.42;76.01
63088;BME280;49173;43.164;27.786;2023-02-26T04:57:49;99611.56;;;13.41;75.89
63088;BME280;49173;43.164;27.786;2023-02-26T05:00:15;99613.00;;;13.45;75.88
63088;BME280;49173;43.164;27.786;2023-02-26T05:02:42;99622.94;;;13.45;75.61
63088;BME280;49173;43.164;27.786;2023-02-26T05:05:08;99629.19;;;13.45;75.88
63088;BME280;49173;43.164;27.786;2023-02-26T05:07:34;99633.63;;;13.46;75.74
63088;BME280;49173;43.164;27.786;2023-02-26T05:10:00;99637.28;;;13.45;75.68
63088;BME280;49173;43.164;27.786;2023-02-26T05:12:25;99648.31;;;13.42;75.98
63088;BME280;49173;43.164;27.786;2023-02-26T05:14:51;99657.25;;;13.43;75.98
63088;BME280;49173;43.164;27.786;2023-02-26T05:17:17;99656.13;;;13.45;75.83
63088;BME280;49173;43.164;27.786;2023-02-26T05:19:43;99657.97;;;13.45;75.84
63088;BME280;49173;43.164;27.786;2023-02-26T05:22:09;99664.22;;;13.45;75.77
63088;BME280;49173;43.164;27.786;2023-02-26T05:24:34;99668.75;;;13.45;75.68
63088;BME280;49173;43.164;27.786;2023-02-26T05:27:00;99676.84;;;13.45;75.61
63088;BME280;49173;43.164;27.786;2023-02-26T05:29:27;99654.69;;;13.41;75.75
63088;BME280;49173;43.164;27.786;2023-02-26T05:31:52;99657.13;;;13.44;75.62
63088;BME280;49173;43.164;27.786;2023-02-26T05:34:18;99653.44;;;13.45;75.84
63088;BME280;49173;43.164;27.786;2023-02-26T05:36:44;99670.59;;;13.44;75.71
63088;BME280;49173;43.164;27.786;2023-02-26T05:39:11;99669.25;;;13.50;75.53
63088;BME280;49173;43.164;27.786;2023-02-26T05:41:38;99667.31;;;13.52;75.49
63088;BME280;49173;43.164;27.786;2023-02-26T05:44:03;99671.63;;;13.55;75.04
63088;BME280;49173;43.164;27.786;2023-02-26T05:46:29;99677.88;;;13.55;75.15
63088;BME280;49173;43.164;27.786;2023-02-26T05:48:55;99669.66;;;13.57;75.15
63088;BME280;49173;43.164;27.786;2023-02-26T05:51:21;99676.88;;;13.56;75.13
63088;BME280;49173;43.164;27.786;2023-02-26T05:53:47;99679.56;;;13.56;75.00
63088;BME280;49173;43.164;27.786;2023-02-26T05:56:13;99683.84;;;13.59;75.03
63088;BME280;49173;43.164;27.786;2023-02-26T05:58:39;99690.88;;;13.61;75.13
63088;BME280;49173;43.164;27.786;2023-02-26T06:01:04;99683.00;;;13.58;75.20
63088;BME280;49173;43.164;27.786;2023-02-26T06:03:30;99671.34;;;13.58;75.34
63088;BME280;49173;43.164;27.786;2023-02-26T06:05:56;99683.75;;;13.60;75.00
63088;BME280;49173;43.164;27.786;2023-02-26T06:08:22;99686.47;;;13.60;75.27
63088;BME280;49173;43.164;27.786;2023-02-26T06:10:49;99681.66;;;13.64;75.09
63088;BME280;49173;43.164;27.786;2023-02-26T06:13:16;99674.56;;;13.63;75.20
63088;BME280;49173;43.164;27.786;2023-02-26T06:15:42;99670.03;;;13.63;75.12
63088;BME280;49173;43.164;27.786;2023-02-26T06:18:08;99684.38;;;13.64;75.12
63088;BME280;49173;43.164;27.786;2023-02-26T06:20:34;99681.41;;;13.67;74.86
63088;BME280;49173;43.164;27.786;2023-02-26T06:23:00;99670.63;;;13.67;74.77
63088;BME280;49173;43.164;27.786;2023-02-26T06:25:26;99671.75;;;13.64;74.62
63088;BME280;49173;43.164;27.786;2023-02-26T06:27:51;99671.38;;;13.69;74.57
63088;BME280;49173;43.164;27.786;2023-02-26T06:30:17;99654.44;;;13.67;74.24
63088;BME280;49173;43.164;27.786;2023-02-26T06:32:43;99652.50;;;13.69;73.93
63088;BME280;49173;43.164;27.786;2023-02-26T06:35:09;99659.84;;;13.67;73.87
63088;BME280;49173;43.164;27.786;2023-02-26T06:37:35;99669.41;;;13.71;73.79
63088;BME280;49173;43.164;27.786;2023-02-26T06:40:02;99671.13;;;13.72;73.46
63088;BME280;49173;43.164;27.786;2023-02-26T06:42:28;99698.22;;;13.70;73.51
63088;BME280;49173;43.164;27.786;2023-02-26T06:44:54;99706.06;;;13.73;73.47
63088;BME280;49173;43.164;27.786;2023-02-26T06:47:22;99729.25;;;13.76;73.31
63088;BME280;49173;43.164;27.786;2023-02-26T06:49:48;99722.03;;;13.77;73.33
63088;BME280;49173;43.164;27.786;2023-02-26T06:52:14;99725.78;;;13.74;73.23
63088;BME280;49173;43.164;27.786;2023-02-26T06:54:40;99730.84;;;13.79;73.13
63088;BME280;49173;43.164;27.786;2023-02-26T06:57:06;99729.84;;;13.80;73.17
63088;BME280;49173;43.164;27.786;2023-02-26T06:59:32;99741.28;;;13.83;73.01
63088;BME280;49173;43.164;27.786;2023-02-26T07:01:58;99735.03;;;13.83;73.12
63088;BME280;49173;43.164;27.786;2023-02-26T07:04:24;99742.88;;;13.86;73.08
63088;BME280;49173;43.164;27.786;2023-02-26T07:06:50;99740.03;;;13.87;73.43
63088;BME280;49173;43.164;27.786;2023-02-26T07:09:17;99737.13;;;13.90;73.07
63088;BME280;49173;43.164;27.786;2023-02-26T07:11:44;99732.59;;;13.91;73.06
63088;BME280;49173;43.164;27.786;2023-02-26T07:14:10;99722.66;;;13.91;73.15
63088;BME280;49173;43.164;27.786;2023-02-26T07:16:35;99735.16;;;13.92;73.22
63088;BME280;49173;43.164;27.786;2023-02-26T07:19:01;99749.16;;;13.97;72.90
63088;BME280;49173;43.164;27.786;2023-02-26T07:21:27;99748.88;;;14.00;72.86
63088;BME280;49173;43.164;27.786;2023-02-26T07:23:53;99740.56;;;14.04;72.56
63088;BME280;49173;43.164;27.786;2023-02-26T07:26:19;99735.91;;;14.06;72.91
63088;BME280;49173;43.164;27.786;2023-02-26T07:28:45;99746.56;;;14.07;72.40
63088;BME280;49173;43.164;27.786;2023-02-26T07:31:11;99740.94;;;14.10;72.41
63088;BME280;49173;43.164;27.786;2023-02-26T07:33:37;99735.28;;;14.13;72.20
63088;BME280;49173;43.164;27.786;2023-02-26T07:36:04;99733.44;;;14.14;72.03
63088;BME280;49173;43.164;27.786;2023-02-26T07:38:30;99740.56;;;14.15;72.06
63088;BME280;49173;43.164;27.786;2023-02-26T07:40:56;99726.34;;;14.13;71.94
63088;BME280;49173;43.164;27.786;2023-02-26T07:43:25;99727.19;;;14.13;72.03
63088;BME280;49173;43.164;27.786;2023-02-26T07:45:52;99738.63;;;14.17;71.33
63088;BME280;49173;43.164;27.786;2023-02-26T07:48:18;99733.22;;;14.17;71.53
63088;BME280;49173;43.164;27.786;2023-02-26T07:50:44;99733.69;;;14.22;71.05
63088;BME280;49173;43.164;27.786;2023-02-26T07:53:10;99738.97;;;14.23;71.03
63088;BME280;49173;43.164;27.786;2023-02-26T07:55:36;99729.03;;;14.24;70.80
63088;BME280;49173;43.164;27.786;2023-02-26T07:58:02;99732.34;;;14.27;70.79
63088;BME280;49173;43.164;27.786;2023-02-26T08:00:28;99735.66;;;14.31;70.84
63088;BME280;49173;43.164;27.786;2023-02-26T08:02:54;99740.81;;;14.34;70.32
63088;BME280;49173;43.164;27.786;2023-02-26T08:05:20;99731.22;;;14.41;70.04
63088;BME280;49173;43.164;27.786;2023-02-26T08:07:46;99731.63;;;14.48;69.71
63088;BME280;49173;43.164;27.786;2023-02-26T08:10:11;99729.16;;;14.56;68.78
63088;BME280;49173;43.164;27.786;2023-02-26T08:12:37;99743.16;;;14.61;68.62
63088;BME280;49173;43.164;27.786;2023-02-26T08:15:04;99719.19;;;14.68;67.20
63088;BME280;49173;43.164;27.786;2023-02-26T08:17:31;99718.81;;;14.72;66.95
63088;BME280;49173;43.164;27.786;2023-02-26T08:19:57;99724.56;;;14.79;66.95
63088;BME280;49173;43.164;27.786;2023-02-26T08:22:23;99724.06;;;14.85;66.35
63088;BME280;49173;43.164;27.786;2023-02-26T08:24:49;99734.63;;;14.88;66.49
63088;BME280;49173;43.164;27.786;2023-02-26T08:27:15;99726.97;;;14.93;66.25
63088;BME280;49173;43.164;27.786;2023-02-26T08:29:50;99724.50;;;15.01;66.15
63088;BME280;49173;43.164;27.786;2023-02-26T08:32:17;99739.34;;;15.07;65.17
63088;BME280;49173;43.164;27.786;2023-02-26T08:34:45;99726.31;;;15.12;64.87
63088;BME280;49173;43.164;27.786;2023-02-26T08:37:11;99722.94;;;15.20;64.38
63088;BME280;49173;43.164;27.786;2023-02-26T08:39:38;99727.00;;;15.25;64.35
63088;BME280;49173;43.164;27.786;2023-02-26T08:42:06;99727.19;;;15.33;63.62
63088;BME280;49173;43.164;27.786;2023-02-26T08:44:32;99730.94;;;15.42;63.17
63088;BME280;49173;43.164;27.786;2023-02-26T08:46:58;99736.97;;;15.46;63.33
63088;BME280;49173;43.164;27.786;2023-02-26T08:49:24;99737.03;;;15.55;63.06
63088;BME280;49173;43.164;27.786;2023-02-26T08:51:50;99734.56;;;15.63;63.12
63088;BME280;49173;43.164;27.786;2023-02-26T08:54:15;99726.78;;;15.70;62.24
63088;BME280;49173;43.164;27.786;2023-02-26T08:56:41;99731.66;;;15.76;62.47
63088;BME280;49173;43.164;27.786;2023-02-26T08:59:08;99741.81;;;15.84;62.22
63088;BME280;49173;43.164;27.786;2023-02-26T09:01:36;99747.41;;;15.92;62.24
63088;BME280;49173;43.164;27.786;2023-02-26T09:04:02;99742.63;;;16.05;62.14
63088;BME280;49173;43.164;27.786;2023-02-26T09:06:28;99738.41;;;16.12;61.63
63088;BME280;49173;43.164;27.786;2023-02-26T09:08:54;99747.59;;;16.21;61.95
63088;BME280;49173;43.164;27.786;2023-02-26T09:11:20;99745.06;;;16.29;61.38
63088;BME280;49173;43.164;27.786;2023-02-26T09:13:45;99732.53;;;16.38;61.95
63088;BME280;49173;43.164;27.786;2023-02-26T09:16:11;99729.59;;;16.51;60.58
63088;BME280;49173;43.164;27.786;2023-02-26T09:18:37;99713.91;;;16.54;60.24
63088;BME280;49173;43.164;27.786;2023-02-26T09:21:03;99736.03;;;16.59;60.22
63088;BME280;49173;43.164;27.786;2023-02-26T09:23:29;99736.47;;;16.64;59.70
63088;BME280;49173;43.164;27.786;2023-02-26T09:25:56;99742.34;;;16.69;60.05
63088;BME280;49173;43.164;27.786;2023-02-26T09:28:23;99731.53;;;16.69;59.95
63088;BME280;49173;43.164;27.786;2023-02-26T09:30:53;99739.94;;;16.76;59.98
63088;BME280;49173;43.164;27.786;2023-02-26T09:33:22;99739.13;;;16.85;59.81
63088;BME280;49173;43.164;27.786;2023-02-26T09:35:49;99750.53;;;16.89;59.90
63088;BME280;49173;43.164;27.786;2023-02-26T09:38:15;99739.84;;;16.97;59.47
63088;BME280;49173;43.164;27.786;2023-02-26T09:40:43;99725.88;;;17.01;59.13
63088;BME280;49173;43.164;27.786;2023-02-26T09:45:47;99723.47;;;17.08;58.87
63088;BME280;49173;43.164;27.786;2023-02-26T09:48:19;99713.31;;;17.10;58.74
63088;BME280;49173;43.164;27.786;2023-02-26T09:50:52;99710.75;;;17.09;58.43
63088;BME280;49173;43.164;27.786;2023-02-26T09:53:23;99716.75;;;17.12;58.46
63088;BME280;49173;43.164;27.786;2023-02-26T09:55:52;99714.47;;;17.17;58.75
63088;BME280;49173;43.164;27.786;2023-02-26T10:01:04;99702.91;;;17.25;58.06
63088;BME280;49173;43.164;27.786;2023-02-26T10:06:34;99728.06;;;17.27;58.08
63088;BME280;49173;43.164;27.786;2023-02-26T10:12:01;99698.91;;;17.19;57.56
63088;BME280;49173;43.164;27.786;2023-02-26T10:14:27;99702.78;;;17.17;57.74
63088;BME280;49173;43.164;27.786;2023-02-26T10:17:07;99699.50;;;17.13;57.76
63088;BME280;49173;43.164;27.786;2023-02-26T10:19:42;99720.47;;;17.11;57.92
63088;BME280;49173;43.164;27.786;2023-02-26T10:22:18;99710.63;;;17.10;58.03
63088;BME280;49173;43.164;27.786;2023-02-26T10:25:32;99702.47;;;17.10;58.19
63088;BME280;49173;43.164;27.786;2023-02-26T10:27:46;99696.50;;;17.07;57.78
63088;BME280;49173;43.164;27.786;2023-02-26T10:30:24;99699.78;;;17.00;57.61
63088;BME280;49173;43.164;27.786;2023-02-26T10:33:19;99709.19;;;16.96;57.60
63088;BME280;49173;43.164;27.786;2023-02-26T10:35:52;99702.19;;;16.94;57.57
63088;BME280;49173;43.164;27.786;2023-02-26T10:38:23;99692.06;;;16.86;57.53
63088;BME280;49173;43.164;27.786;2023-02-26T10:40:54;99702.44;;;16.81;57.29
63088;BME280;49173;43.164;27.786;2023-02-26T10:43:42;99706.03;;;16.82;57.32
63088;BME280;49173;43.164;27.786;2023-02-26T10:46:32;99732.13;;;16.83;56.93
63088;BME280;49173;43.164;27.786;2023-02-26T10:51:35;99734.56;;;16.86;56.90
63088;BME280;49173;43.164;27.786;2023-02-26T10:54:38;99736.28;;;16.87;56.87
63088;BME280;49173;43.164;27.786;2023-02-26T10:56:56;99741.00;;;16.85;56.44
63088;BME280;49173;43.164;27.786;2023-02-26T10:59:22;99743.69;;;16.85;56.75
63088;BME280;49173;43.164;27.786;2023-02-26T11:01:50;99737.00;;;16.89;56.90
63088;BME280;49173;43.164;27.786;2023-02-26T11:04:20;99743.25;;;16.89;56.99
63088;BME280;49173;43.164;27.786;2023-02-26T11:06:55;99739.13;;;16.85;57.24
63088;BME280;49173;43.164;27.786;2023-02-26T11:09:32;99741.69;;;16.87;57.18
63088;BME280;49173;43.164;27.786;2023-02-26T11:14:31;99755.25;;;16.87;57.70
63088;BME280;49173;43.164;27.786;2023-02-26T11:17:00;99732.84;;;16.85;57.81
63088;BME280;49173;43.164;27.786;2023-02-26T11:19:36;99733.81;;;16.84;58.08
63088;BME280;49173;43.164;27.786;2023-02-26T11:22:03;99725.00;;;16.82;58.11
63088;BME280;49173;43.164;27.786;2023-02-26T11:24:34;99723.28;;;16.81;57.70
63088;BME280;49173;43.164;27.786;2023-02-26T11:27:03;99725.84;;;16.82;58.08
63088;BME280;49173;43.164;27.786;2023-02-26T11:29:41;99730.69;;;16.79;57.86
63088;BME280;49173;43.164;27.786;2023-02-26T11:32:20;99731.41;;;16.81;58.12
63088;BME280;49173;43.164;27.786;2023-02-26T11:34:48;99722.44;;;16.80;58.25
63088;BME280;49173;43.164;27.786;2023-02-26T11:37:34;99729.41;;;16.83;58.18
63088;BME280;49173;43.164;27.786;2023-02-26T11:40:16;99725.69;;;16.84;58.06
63088;BME280;49173;43.164;27.786;2023-02-26T11:42:48;99715.59;;;16.86;57.84
63088;BME280;49173;43.164;27.786;2023-02-26T11:45:17;99725.44;;;16.87;57.76
63088;BME280;49173;43.164;27.786;2023-02-26T11:47:45;99745.25;;;16.87;57.56
63088;BME280;49173;43.164;27.786;2023-02-26T11:50:18;99738.13;;;16.86;57.34
63088;BME280;49173;43.164;27.786;2023-02-26T11:52:54;99741.56;;;16.88;57.35
63088;BME280;49173;43.164;27.786;2023-02-26T11:55:27;99749.69;;;16.88;57.23
63088;BME280;49173;43.164;27.786;2023-02-26T11:57:54;99738.69;;;16.90;57.40
63088;BME280;49173;43.164;27.786;2023-02-26T12:00:29;99732.56;;;16.88;57.26
63088;BME280;49173;43.164;27.786;2023-02-26T12:03:00;99724.44;;;16.88;56.39
63088;BME280;49173;43.164;27.786;2023-02-26T12:05:29;99723.72;;;16.86;55.98
63088;BME280;49173;43.164;27.786;2023-02-26T12:07:55;99729.41;;;16.83;55.76
63088;BME280;49173;43.164;27.786;2023-02-26T12:10:43;99729.69;;;16.80;55.76
63088;BME280;49173;43.164;27.786;2023-02-26T12:16:06;99718.56;;;16.73;55.99
63088;BME280;49173;43.164;27.786;2023-02-26T12:21:34;99728.84;;;16.79;55.31
63088;BME280;49173;43.164;27.786;2023-02-26T12:24:25;99732.97;;;16.83;55.46
63088;BME280;49173;43.164;27.786;2023-02-26T12:33:05;99741.69;;;16.87;55.31
63088;BME280;49173;43.164;27.786;2023-02-26T12:41:42;99756.56;;;17.02;54.99
63088;BME280;49173;43.164;27.786;2023-02-26T12:52:13;99773.66;;;16.93;55.36
63088;BME280;49173;43.164;27.786;2023-02-26T13:05:15;99749.84;;;16.87;55.47
63088;BME280;49173;43.164;27.786;2023-02-26T13:13:46;99754.66;;;16.73;55.55
63088;BME280;49173;43.164;27.786;2023-02-26T13:19:02;99754.44;;;16.65;55.57
63088;BME280;49173;43.164;27.786;2023-02-26T13:21:35;99752.84;;;16.63;55.79
63088;BME280;49173;43.164;27.786;2023-02-26T13:24:11;99754.84;;;16.61;55.79
63088;BME280;49173;43.164;27.786;2023-02-26T13:26:39;99755.00;;;16.59;55.77
63088;BME280;49173;43.164;27.786;2023-02-26T13:31:46;99747.72;;;16.60;55.66
63088;BME280;49173;43.164;27.786;2023-02-26T13:37:02;99746.28;;;16.56;55.23
63088;BME280;49173;43.164;27.786;2023-02-26T13:46:07;99766.25;;;16.55;55.20
63088;BME280;49173;43.164;27.786;2023-02-26T13:50:59;99771.94;;;16.52;55.52
63088;BME280;49173;43.164;27.786;2023-02-26T13:56:23;99784.63;;;16.51;55.82
63088;BME280;49173;43.164;27.786;2023-02-26T14:01:52;99778.63;;;16.47;55.41
63088;BME280;49173;43.164;27.786;2023-02-26T14:07:11;99773.63;;;16.43;55.74
63088;BME280;49173;43.164;27.786;2023-02-26T14:12:29;99759.63;;;16.38;55.80
63088;BME280;49173;43.164;27.786;2023-02-26T14:17:41;99770.72;;;16.35;55.49
63088;BME280;49173;43.164;27.786;2023-02-26T14:20:21;99765.59;;;16.32;55.46
63088;BME280;49173;43.164;27.786;2023-02-26T14:25:51;99769.16;;;16.32;55.80
63088;BME280;49173;43.164;27.786;2023-02-26T14:30:52;99795.97;;;16.35;55.22
63088;BME280;49173;43.164;27.786;2023-02-26T14:33:30;99791.66;;;16.33;55.46
63088;BME280;49173;43.164;27.786;2023-02-26T14:35:57;99781.53;;;16.35;55.83
63088;BME280;49173;43.164;27.786;2023-02-26T14:38:27;99781.53;;;16.35;55.52
63088;BME280;49173;43.164;27.786;2023-02-26T14:41:33;99779.66;;;16.26;55.30
63088;BME280;49173;43.164;27.786;2023-02-26T14:44:14;99786.78;;;16.27;55.73
63088;BME280;49173;43.164;27.786;2023-02-26T14:46:43;99803.03;;;16.27;55.48
63088;BME280;49173;43.164;27.786;2023-02-26T14:49:31;99792.34;;;16.25;55.25
63088;BME280;49173;43.164;27.786;2023-02-26T14:52:27;99803.31;;;16.24;55.30
63088;BME280;49173;43.164;27.786;2023-02-26T15:06:47;99813.50;;;16.10;55.37
63088;BME280;49173;43.164;27.786;2023-02-26T15:11:55;99814.22;;;16.12;55.62
63088;BME280;49173;43.164;27.786;2023-02-26T15:14:50;99827.03;;;16.10;55.57
63088;BME280;49173;43.164;27.786;2023-02-26T15:25:43;99816.91;;;16.12;55.33
63088;BME280;49173;43.164;27.786;2023-02-26T15:28:29;99809.94;;;16.10;55.40
63088;BME280;49173;43.164;27.786;2023-02-26T15:30:58;99829.00;;;16.08;55.52
63088;BME280;49173;43.164;27.786;2023-02-26T15:33:25;99827.16;;;16.09;55.54
63088;BME280;49173;43.164;27.786;2023-02-26T15:35:54;99842.66;;;16.07;55.30
63088;BME280;49173;43.164;27.786;2023-02-26T15:38:21;99843.94;;;16.03;55.32
63088;BME280;49173;43.164;27.786;2023-02-26T15:40:50;99843.47;;;15.98;55.68
63088;BME280;49173;43.164;27.786;2023-02-26T15:43:21;99856.84;;;15.99;55.63